createdAt,value
2022-09-04T00:00:00.725Z,101348.91
2022-09-04T00:04:10.939Z,101357.06
2022-09-04T00:08:27.780Z,101360.09
2022-09-04T00:12:38.073Z,101361.81
2022-09-04T00:17:00.352Z,101361.00
2022-09-04T00:21:21.588Z,101353.19
2022-09-04T00:25:33.206Z,101352.06
2022-09-04T00:29:49.869Z,101351.41
2022-09-04T00:34:00.572Z,101355.28
2022-09-04T00:38:31.368Z,101358.56
2022-09-04T00:43:07.057Z,101362.81
2022-09-04T00:47:40.780Z,101357.13
2022-09-04T00:52:03.301Z,101363.78
2022-09-04T00:56:25.209Z,101374.25
2022-09-04T01:00:28.465Z,101379.69
2022-09-04T01:05:09.656Z,101378.03
2022-09-04T01:09:53.954Z,101375.31
2022-09-04T01:14:00.719Z,101377.47
2022-09-04T01:18:30.797Z,101381.88
2022-09-04T01:22:51.672Z,101387.81
2022-09-04T01:27:03.100Z,101386.59
2022-09-04T01:31:18.374Z,101392.34
2022-09-04T01:35:44.483Z,101391.72
2022-09-04T01:39:57.913Z,101395.53
2022-09-04T01:43:59.795Z,101397.22
2022-09-04T01:48:07.934Z,101390.28
2022-09-04T01:52:09.309Z,101395.16
2022-09-04T01:56:21.182Z,101391.75
2022-09-04T02:00:25.050Z,101391.66
2022-09-04T02:05:03.978Z,101387.88
2022-09-04T02:09:21.805Z,101385.28
2022-09-04T02:14:04.284Z,101388.41
2022-09-04T02:18:24.607Z,101397.09
2022-09-04T02:22:44.931Z,101396.97
2022-09-04T02:27:05.478Z,101387.34
2022-09-04T02:31:17.044Z,101391.47
2022-09-04T02:35:39.840Z,101398.72
2022-09-04T02:40:04.059Z,101387.53
2022-09-04T02:44:27.195Z,101393.81
2022-09-04T02:48:40.993Z,101393.59
2022-09-04T02:53:08.051Z,101399.88
2022-09-04T02:57:47.966Z,101397.34
2022-09-04T03:02:00.474Z,101405.84
2022-09-04T03:06:10.751Z,101395.97
2022-09-04T03:10:24.688Z,101397.22
2022-09-04T03:14:38.335Z,101390.81
2022-09-04T03:19:05.053Z,101393.31
2022-09-04T03:23:35.457Z,101397.84
2022-09-04T03:27:37.462Z,101399.09
2022-09-04T03:32:15.114Z,101402.22
2022-09-04T03:36:40.163Z,101405.59
2022-09-04T03:40:49.978Z,101409.34
2022-09-04T03:45:09.641Z,101409.34
2022-09-04T03:49:22.307Z,101405.44
2022-09-04T03:53:42.846Z,101406.53
2022-09-04T03:58:29.207Z,101416.06
2022-09-04T04:02:55.917Z,101425.19
2022-09-04T04:07:13.782Z,101433.56
2022-09-04T04:11:43.312Z,101432.50
2022-09-04T04:16:03.505Z,101435.25
2022-09-04T04:20:29.553Z,101432.56
2022-09-04T04:24:50.427Z,101428.09
2022-09-04T04:28:59.825Z,101429.84
2022-09-04T04:33:30.826Z,101434.31
2022-09-04T04:37:59.322Z,101431.31
2022-09-04T04:42:09.011Z,101438.72
2022-09-04T04:46:29.207Z,101450.28
2022-09-04T04:50:59.371Z,101457.09
2022-09-04T04:55:10.895Z,101459.69
2022-09-04T04:59:23.440Z,101457.84
2022-09-04T05:03:37.658Z,101460.56
2022-09-04T05:07:48.100Z,101474.72
2022-09-04T05:12:02.271Z,101478.63
2022-09-04T05:16:19.314Z,101482.81
2022-09-04T05:20:35.334Z,101502.63
2022-09-04T05:25:00.088Z,101502.88
2022-09-04T05:29:21.668Z,101512.88
2022-09-04T05:33:30.470Z,101520.81
2022-09-04T05:37:55.731Z,101532.84
2022-09-04T05:42:34.458Z,101534.34
2022-09-04T05:46:38.950Z,101538.16
2022-09-04T05:50:47.521Z,101545.13
2022-09-04T05:55:03.460Z,101551.06
2022-09-04T05:59:19.933Z,101558.34
2022-09-04T06:03:55.688Z,101552.09
2022-09-04T06:08:28.935Z,101554.00
2022-09-04T06:13:01.991Z,101567.34
2022-09-04T06:17:22.860Z,101570.09
2022-09-04T06:21:33.961Z,101580.59
2022-09-04T06:26:00.357Z,101568.81
2022-09-04T06:30:16.120Z,101566.25
2022-09-04T06:34:58.872Z,101565.94
2022-09-04T06:39:19.034Z,101576.50
2022-09-04T06:43:24.626Z,101570.97
2022-09-04T06:47:36.847Z,101581.38
2022-09-04T06:52:03.207Z,101583.25
2022-09-04T06:56:14.423Z,101585.84
2022-09-04T07:00:18.054Z,101587.81
2022-09-04T07:04:44.567Z,101593.22
2022-09-04T07:09:03.520Z,101583.47
2022-09-04T07:13:29.358Z,101593.53
2022-09-04T07:17:42.146Z,101601.47
2022-09-04T07:22:09.132Z,101602.66
2022-09-04T07:26:11.153Z,101599.41
2022-09-04T07:30:16.027Z,101584.13
2022-09-04T07:34:38.601Z,101600.47
2022-09-04T07:38:56.990Z,101597.22
2022-09-04T07:43:11.127Z,101608.66
2022-09-04T07:47:35.535Z,101609.72
2022-09-04T07:51:45.699Z,101612.56
2022-09-04T07:55:52.648Z,101606.25
2022-09-04T08:00:10.292Z,101617.94
2022-09-04T08:04:38.055Z,101638.53
2022-09-04T08:09:18.125Z,101643.97
2022-09-04T08:13:35.469Z,101641.25
2022-09-04T08:18:01.511Z,101654.19
2022-09-04T08:22:04.976Z,101659.06
2022-09-04T08:26:14.972Z,101646.94
2022-09-04T08:30:20.259Z,101657.06
2022-09-04T08:34:47.536Z,101651.47
2022-09-04T08:38:56.432Z,101664.25
2022-09-04T08:43:04.112Z,101659.94
2022-09-04T08:47:35.478Z,101656.28
2022-09-04T08:52:08.856Z,101655.47
2022-09-04T08:56:28.420Z,101643.72
2022-09-04T09:00:48.077Z,101649.16
2022-09-04T09:05:08.969Z,101647.38
2022-09-04T09:09:10.350Z,101650.72
2022-09-04T09:13:35.088Z,101662.03
2022-09-04T09:17:53.866Z,101649.81
2022-09-04T09:22:10.425Z,101645.16
2022-09-04T09:26:29.409Z,101650.72
2022-09-04T09:31:19.023Z,101647.41
2022-09-04T09:39:58.706Z,101643.16
2022-09-04T09:44:00.890Z,101649.16
2022-09-04T09:48:33.453Z,101640.81
2022-09-04T09:53:10.134Z,101639.38
2022-09-04T09:57:36.611Z,101640.47
2022-09-04T10:02:16.450Z,101634.75
2022-09-04T10:06:59.219Z,101642.13
2022-09-04T10:11:23.670Z,101639.47
2022-09-04T10:15:28.612Z,101632.53
2022-09-04T10:19:58.699Z,101647.44
2022-09-04T10:24:07.033Z,101634.63
2022-09-04T10:28:42.583Z,101637.53
2022-09-04T10:33:11.750Z,101652.75
2022-09-04T10:37:41.328Z,101649.69
2022-09-04T10:42:16.813Z,101654.44
2022-09-04T10:46:28.823Z,101656.09
2022-09-04T10:51:00.036Z,101653.25
2022-09-04T10:55:31.395Z,101651.47
2022-09-04T11:00:05.738Z,101651.22
2022-09-04T11:04:13.916Z,101642.31
2022-09-04T11:08:39.679Z,101652.16
2022-09-04T11:13:03.536Z,101657.41
2022-09-04T11:17:51.599Z,101653.16
2022-09-04T11:22:12.616Z,101654.28
2022-09-04T11:26:53.532Z,101649.97
2022-09-04T11:31:01.757Z,101646.97
2022-09-04T11:35:22.160Z,101646.28
2022-09-04T11:39:48.565Z,101649.03
2022-09-04T11:44:07.085Z,101633.44
2022-09-04T11:48:31.133Z,101643.13
2022-09-04T11:52:46.639Z,101637.38
2022-09-04T11:57:29.662Z,101623.59
2022-09-04T12:01:31.011Z,101622.31
2022-09-04T12:05:50.865Z,101619.72
2022-09-04T12:10:26.575Z,101618.56
2022-09-04T12:14:54.662Z,101613.81
2022-09-04T12:19:39.859Z,101620.75
2022-09-04T12:24:22.817Z,101608.75
2022-09-04T12:29:03.199Z,101614.63
2022-09-04T12:33:38.727Z,101608.56
2022-09-04T12:37:43.639Z,101615.63
2022-09-04T12:42:18.919Z,101613.13
2022-09-04T12:46:50.249Z,101619.38
2022-09-04T12:50:51.696Z,101615.69
2022-09-04T12:55:37.178Z,101624.66
2022-09-04T13:00:08.981Z,101622.91
2022-09-04T13:04:27.870Z,101613.47
2022-09-04T13:08:32.333Z,101619.72
2022-09-04T13:13:05.074Z,101620.81
2022-09-04T13:17:24.415Z,101619.22
2022-09-04T13:21:51.581Z,101619.69
2022-09-04T13:26:06.207Z,101623.78
2022-09-04T13:30:24.525Z,101625.75
2022-09-04T13:34:38.064Z,101621.88
2022-09-04T13:38:51.739Z,101622.59
2022-09-04T13:43:22.582Z,101624.13
2022-09-04T13:47:31.926Z,101631.50
2022-09-04T13:51:40.659Z,101629.88
2022-09-04T13:55:49.869Z,101631.78
2022-09-04T13:59:55.441Z,101639.91
2022-09-04T14:04:04.947Z,101638.03
2022-09-04T14:08:14.661Z,101632.44
2022-09-04T14:12:57.611Z,101626.53
2022-09-04T14:17:00.079Z,101626.38
2022-09-04T14:21:14.857Z,101634.69
2022-09-04T14:25:22.045Z,101627.97
2022-09-04T14:29:50.021Z,101637.44
2022-09-04T14:34:20.866Z,101639.53
2022-09-04T14:38:54.333Z,101636.31
2022-09-04T14:43:04.784Z,101636.66
2022-09-04T14:47:26.043Z,101641.78
2022-09-04T14:51:27.490Z,101640.00
2022-09-04T14:55:32.468Z,101650.50
2022-09-04T14:59:41.270Z,101647.16
2022-09-04T15:03:55.325Z,101637.72
2022-09-04T15:08:00.399Z,101635.31
2022-09-04T15:12:25.960Z,101627.50
2022-09-04T15:16:39.263Z,101629.63
2022-09-04T15:20:53.996Z,101633.09
2022-09-04T15:25:05.126Z,101629.97
2022-09-04T15:29:14.199Z,101632.84
2022-09-04T15:33:19.905Z,101630.28
2022-09-04T15:37:28.598Z,101627.00
2022-09-04T15:41:33.978Z,101634.41
2022-09-04T15:45:53.538Z,101633.47
2022-09-04T15:50:00.363Z,101643.94
2022-09-04T15:54:11.757Z,101644.22
2022-09-04T15:58:33.313Z,101643.28
2022-09-04T16:02:51.476Z,101638.44
2022-09-04T16:07:01.937Z,101650.84
2022-09-04T16:11:11.688Z,101655.22
2022-09-04T16:15:22.299Z,101649.38
2022-09-04T16:19:53.914Z,101658.13
2022-09-04T16:23:59.686Z,101666.25
2022-09-04T16:28:07.987Z,101654.41
2022-09-04T16:32:12.163Z,101658.09
2022-09-04T16:36:40.157Z,101668.53
2022-09-04T16:40:48.661Z,101667.88
2022-09-04T16:45:16.892Z,101675.50
2022-09-04T16:49:29.744Z,101684.75
2022-09-04T16:53:43.494Z,101681.22
2022-09-04T16:58:07.371Z,101685.13
2022-09-04T17:02:51.151Z,101688.91
2022-09-04T17:07:09.582Z,101696.41
2022-09-04T17:11:55.885Z,101697.47
2022-09-04T17:16:22.323Z,101692.06
2022-09-04T17:21:39.703Z,101703.09
2022-09-04T17:29:19.375Z,101700.63
2022-09-04T17:29:48.041Z,101695.22
2022-09-04T17:40:06.247Z,101704.47
2022-09-04T17:40:49.400Z,101701.41
2022-09-04T17:43:22.723Z,101709.53
2022-09-04T17:47:34.176Z,101720.47
2022-09-04T17:51:36.757Z,101722.53
2022-09-04T17:55:47.625Z,101731.94
2022-09-04T18:00:02.064Z,101732.56
2022-09-04T18:04:21.863Z,101734.69
2022-09-04T18:08:32.729Z,101738.84
2022-09-04T18:12:43.911Z,101749.75
2022-09-04T18:17:16.219Z,101747.09
2022-09-04T18:21:35.767Z,101759.22
2022-09-04T18:25:55.699Z,101758.81
2022-09-04T18:32:20.317Z,101760.47
2022-09-04T18:37:22.282Z,101759.28
2022-09-04T18:39:21.047Z,101766.94
2022-09-04T18:50:25.756Z,101775.78
2022-09-04T18:50:50.652Z,101775.34
2022-09-04T18:52:22.519Z,101784.97
2022-09-04T18:56:30.700Z,101791.41
2022-09-04T19:00:41.001Z,101797.25
2022-09-04T19:05:00.338Z,101792.91
2022-09-04T19:09:12.065Z,101796.13
2022-09-04T19:13:22.155Z,101802.06
2022-09-04T19:17:34.983Z,101790.81
2022-09-04T19:21:39.897Z,101795.53
2022-09-04T19:25:47.966Z,101789.09
2022-09-04T19:30:23.907Z,101785.63
2022-09-04T19:34:35.419Z,101798.22
2022-09-04T19:45:55.886Z,101796.56
2022-09-04T19:46:15.504Z,101797.75
2022-09-04T19:48:35.516Z,101805.19
2022-09-04T19:53:31.988Z,101797.63
2022-09-04T19:57:41.187Z,101796.41
2022-09-04T20:02:02.739Z,101799.91
2022-09-04T20:06:21.853Z,101796.50
2022-09-04T20:10:42.101Z,101799.97
2022-09-04T20:14:56.115Z,101800.41
2022-09-04T20:19:14.790Z,101800.41
2022-09-04T20:23:51.010Z,101806.44
2022-09-04T20:28:20.201Z,101814.63
2022-09-04T20:32:28.366Z,101812.13
2022-09-04T20:36:35.680Z,101816.88
2022-09-04T20:40:43.847Z,101818.53
2022-09-04T20:46:46.926Z,101821.22
2022-09-04T20:52:55.062Z,101824.38
2022-09-04T20:54:28.353Z,101823.81
2022-09-04T21:03:11.417Z,101825.06
2022-09-04T21:03:44.772Z,101829.09
2022-09-04T21:08:02.619Z,101831.81
2022-09-04T21:12:23.142Z,101835.91
2022-09-04T21:16:59.533Z,101848.81
2022-09-04T21:21:15.966Z,101847.66
2022-09-04T21:25:31.440Z,101858.25
2022-09-04T21:30:18.286Z,101864.84
2022-09-04T21:34:32.489Z,101869.34
2022-09-04T21:38:57.258Z,101860.16
2022-09-04T21:43:20.433Z,101868.00
2022-09-04T21:48:02.996Z,101863.59
2022-09-04T21:52:27.325Z,101871.16
2022-09-04T22:02:25.139Z,101866.56
2022-09-04T22:02:49.496Z,101877.63
2022-09-04T22:06:23.050Z,101872.03
2022-09-04T22:13:38.284Z,101874.56
2022-09-04T22:15:10.379Z,101876.53
2022-09-04T22:19:22.479Z,101873.78
2022-09-04T22:24:02.189Z,101886.47
2022-09-04T22:28:45.365Z,101883.28
2022-09-04T22:33:17.687Z,101878.31
2022-09-04T22:37:50.137Z,101883.09
2022-09-04T22:42:20.678Z,101885.53
2022-09-04T22:46:54.657Z,101890.41
2022-09-04T22:51:11.487Z,101883.59
2022-09-04T22:55:40.242Z,101886.28
2022-09-04T23:00:08.830Z,101888.25
2022-09-04T23:04:25.354Z,101885.44
2022-09-04T23:13:44.394Z,101883.81
2022-09-04T23:13:58.886Z,101877.03
2022-09-04T23:17:58.327Z,101882.59
2022-09-04T23:26:47.348Z,101881.53
2022-09-04T23:27:00.781Z,101883.72
2022-09-04T23:31:40.491Z,101884.97
2022-09-04T23:35:54.006Z,101885.53
2022-09-04T23:40:28.408Z,101875.22
2022-09-04T23:44:54.708Z,101893.72
2022-09-04T23:49:24.909Z,101886.34
2022-09-04T23:53:35.298Z,101878.00
2022-09-04T23:57:44.655Z,101887.78
